RJOB

Okayama Airport

Okayama City, Japan
TAF RJOB 212305Z 2200/2306 28009KT 9999 FEW025 SCT045
Issued Valid From Valid To
Jan-21 @ 23:05 UTC
(2 hours ago)
Jan-22 @ 00:00 UTC
(41 minutes ago)
Jan-23 @ 06:00 UTC
(-1 days ago)
Jan-22 @ 00:00 to Jan-23 @ 06:00
TAF RJOB 212305Z 2200/2306 28009KT 9999 FEW025 SCT045
Wind Visibility Clouds
280° at 9 knots 10,000+ meters
  • Few at 2,500' AGL
  • Scattered at 4,500' AGL
TAF RJOB 212305Z 2200/2306 28009KT 9999 FEW025 SCT045
Issued Jan-21 @ 23:05 UTC
(2 hours ago)
Valid From Jan-22 @ 00:00 UTC
(41 minutes ago)
Valid To Jan-23 @ 06:00 UTC
(-1 days ago)
Jan-22 @ 00:00 - Jan-23 @ 06:00
Wind Visibility
280° at 9 knots 10,000+ meters
Clouds
  • Few at 2,500' AGL
  • Scattered at 4,500' AGL